TimeEDT,TemperatureF,Dew PointF,Humidity,Sea Level PressureIn,VisibilityMPH,Wind Direction,Wind SpeedMPH,Gust SpeedMPH,PrecipitationIn,Events,Conditions,WindDirDegrees,DateUTC
12:54 AM,57.9,55.0,90,29.78,10.0,Calm,Calm,-,N/A,,Partly Cloudy,0,2012-10-19 04:54:00
1:54 AM,55.9,54.0,93,29.78,10.0,Calm,Calm,-,N/A,,Scattered Clouds,0,2012-10-19 05:54:00
2:54 AM,54.0,52.0,93,29.76,9.0,North,3.5,-,N/A,,Scattered Clouds,350,2012-10-19 06:54:00
3:54 AM,54.0,52.0,93,29.74,5.0,Variable,3.5,-,N/A,,Scattered Clouds,0,2012-10-19 07:54:00
4:16 AM,53.6,53.6,100,29.78,2.5,Calm,Calm,-,N/A,,Scattered Clouds,0,2012-10-19 08:16:00
4:54 AM,55.0,53.1,93,29.76,9.0,Calm,Calm,-,N/A,,Partly Cloudy,0,2012-10-19 08:54:00
5:54 AM,55.0,50.0,83,29.76,10.0,Calm,Calm,-,N/A,,Clear,0,2012-10-19 09:54:00
6:54 AM,52.0,48.0,86,29.77,10.0,NW,3.5,-,N/A,,Clear,320,2012-10-19 10:54:00
7:54 AM,50.0,48.0,93,29.79,10.0,Calm,Calm,-,N/A,,Clear,0,2012-10-19 11:54:00
8:54 AM,54.0,48.9,83,29.78,10.0,Calm,Calm,-,N/A,,Clear,0,2012-10-19 12:54:00
9:54 AM,59.0,46.9,64,29.78,10.0,West,6.9,-,N/A,,Clear,270,2012-10-19 13:54:00
10:54 AM,63.0,41.0,45,29.77,10.0,WSW,8.1,-,N/A,,Clear,240,2012-10-19 14:54:00
11:54 AM,66.0,36.0,33,29.75,10.0,WSW,8.1,-,N/A,,Clear,250,2012-10-19 15:54:00
12:54 PM,68.0,33.1,27,29.74,10.0,West,8.1,-,N/A,,Clear,270,2012-10-19 16:54:00
1:54 PM,70.0,33.1,26,29.71,10.0,West,11.5,17.3,N/A,,Partly Cloudy,280,2012-10-19 17:54:00
2:54 PM,71.1,30.0,22,29.68,10.0,SSW,6.9,-,N/A,,Partly Cloudy,210,2012-10-19 18:54:00
3:54 PM,70.0,35.1,28,29.67,10.0,South,6.9,18.4,N/A,,Partly Cloudy,170,2012-10-19 19:54:00
4:54 PM,69.1,34.0,27,29.66,10.0,South,10.4,19.6,N/A,,Partly Cloudy,170,2012-10-19 20:54:00
5:54 PM,66.9,34.0,30,29.66,10.0,South,8.1,18.4,N/A,,Clear,190,2012-10-19 21:54:00
6:54 PM,64.0,36.0,35,29.69,10.0,South,6.9,-,N/A,,Partly Cloudy,190,2012-10-19 22:54:00
7:54 PM,62.1,37.0,39,29.71,10.0,SW,3.5,-,N/A,,Clear,230,2012-10-19 23:54:00
8:54 PM,61.0,37.0,41,29.73,10.0,SW,3.5,-,N/A,,Clear,230,2012-10-20 00:54:00
9:54 PM,60.1,37.9,44,29.74,10.0,Calm,Calm,-,N/A,,Clear,0,2012-10-20 01:54:00
10:54 PM,57.0,37.0,47,29.74,10.0,West,6.9,-,N/A,,Clear,270,2012-10-20 02:54:00
11:54 PM,55.9,37.0,49,29.74,10.0,West,6.9,-,N/A,,Clear,280,2012-10-20 03:54:00